createdAt,value
2017-12-02T00:02:02.187Z,17.08
2017-12-02T00:04:31.323Z,18.50
2017-12-02T00:07:00.424Z,17.27
2017-12-02T00:09:29.879Z,17.67
2017-12-02T00:11:59.018Z,17.33
2017-12-02T00:14:28.095Z,18.87
2017-12-02T00:16:57.178Z,19.80
2017-12-02T00:19:27.134Z,17.83
2017-12-02T00:21:56.258Z,18.87
2017-12-02T00:24:25.348Z,18.40
2017-12-02T00:26:54.531Z,18.25
2017-12-02T00:29:24.442Z,19.15
2017-12-02T00:31:53.704Z,18.42
2017-12-02T00:34:23.680Z,18.90
2017-12-02T00:36:52.786Z,18.75
2017-12-02T00:39:21.930Z,19.33
2017-12-02T00:41:52.039Z,17.50
2017-12-02T00:44:21.199Z,17.83
2017-12-02T00:46:50.318Z,18.25
2017-12-02T00:49:20.579Z,17.80
2017-12-02T00:51:49.889Z,18.30
2017-12-02T00:54:19.698Z,20.35
2017-12-02T00:56:49.167Z,18.48
2017-12-02T00:59:19.139Z,20.05
2017-12-02T01:01:48.397Z,18.50
2017-12-02T01:04:20.274Z,19.08
2017-12-02T01:06:51.524Z,18.40
2017-12-02T01:09:21.678Z,17.60
2017-12-02T01:11:50.906Z,19.52
2017-12-02T01:14:20.574Z,19.83
2017-12-02T01:16:50.777Z,19.30
2017-12-02T01:19:20.046Z,21.55
2017-12-02T01:21:50.013Z,19.50
2017-12-02T01:24:19.805Z,20.08
2017-12-02T01:26:49.098Z,18.50
2017-12-02T01:29:18.433Z,16.17
2017-12-02T01:31:48.004Z,19.35
2017-12-02T01:34:17.196Z,15.77
2017-12-02T01:36:47.008Z,17.00
2017-12-02T01:39:16.260Z,17.23
2017-12-02T01:41:45.450Z,15.75
2017-12-02T01:44:14.612Z,15.70
2017-12-02T01:46:43.927Z,14.60
2017-12-02T01:49:13.128Z,14.23
2017-12-02T01:51:42.307Z,16.55
2017-12-02T01:54:12.021Z,16.20
2017-12-02T01:56:41.254Z,16.20
2017-12-02T01:59:10.417Z,16.35
2017-12-02T02:01:39.686Z,15.20
2017-12-02T02:04:09.605Z,15.25
2017-12-02T02:06:38.831Z,14.35
2017-12-02T02:09:07.968Z,16.77
2017-12-02T02:11:37.088Z,16.85
2017-12-02T02:14:06.192Z,15.88
2017-12-02T02:16:35.353Z,15.85
2017-12-02T02:19:04.502Z,15.98
2017-12-02T02:21:34.364Z,15.90
2017-12-02T02:24:03.588Z,17.05
2017-12-02T02:26:32.714Z,16.83
2017-12-02T02:29:01.927Z,16.67
2017-12-02T02:31:31.056Z,14.75
2017-12-02T02:34:00.962Z,16.73
2017-12-02T02:36:30.120Z,14.85
2017-12-02T02:38:59.572Z,16.60
2017-12-02T02:41:29.715Z,13.90
2017-12-02T02:43:58.847Z,15.00
2017-12-02T02:46:29.139Z,15.60
2017-12-02T02:48:58.255Z,18.85
2017-12-02T02:51:27.391Z,14.25
2017-12-02T02:53:57.398Z,15.90
2017-12-02T02:56:26.543Z,18.15
2017-12-02T02:58:56.423Z,19.33
2017-12-02T03:01:25.609Z,18.52
2017-12-02T03:03:54.782Z,19.83
2017-12-02T03:06:24.673Z,19.05
2017-12-02T03:08:53.820Z,21.75
2017-12-02T03:11:23.014Z,20.73
2017-12-02T03:13:52.166Z,19.60
2017-12-02T03:16:21.685Z,20.83
2017-12-02T03:18:50.802Z,19.10
2017-12-02T03:21:20.016Z,18.87
2017-12-02T03:23:50.171Z,19.77
2017-12-02T03:26:19.455Z,20.88
2017-12-02T03:28:48.623Z,17.70
2017-12-02T03:31:19.459Z,18.90
2017-12-02T03:33:48.656Z,18.48
2017-12-02T03:36:17.825Z,17.30
2017-12-02T03:38:47.764Z,17.95
2017-12-02T03:41:17.070Z,15.25
2017-12-02T03:43:46.471Z,15.48
2017-12-02T03:46:16.902Z,16.12
2017-12-02T03:48:46.403Z,16.62
2017-12-02T03:51:15.909Z,15.57
2017-12-02T03:53:46.111Z,15.38
2017-12-02T03:56:17.013Z,15.20
2017-12-02T03:58:46.649Z,15.50
2017-12-02T04:01:15.949Z,16.92
2017-12-02T04:03:46.072Z,15.40
2017-12-02T04:06:15.479Z,15.73
2017-12-02T04:08:45.592Z,13.45
2017-12-02T04:11:14.899Z,14.90
2017-12-02T04:13:44.526Z,14.87
2017-12-02T04:16:13.860Z,14.18
2017-12-02T04:18:49.876Z,14.90
2017-12-02T04:21:19.041Z,15.23
2017-12-02T04:23:48.360Z,18.83
2017-12-02T04:26:17.800Z,15.63
2017-12-02T04:28:47.754Z,15.13
2017-12-02T04:31:17.121Z,16.98
2017-12-02T04:33:47.175Z,14.32
2017-12-02T04:36:16.406Z,17.80
2017-12-02T04:38:45.733Z,16.15
2017-12-02T04:41:16.155Z,15.23
2017-12-02T04:43:45.399Z,15.13
2017-12-02T04:46:14.598Z,15.18
2017-12-02T04:48:43.919Z,18.90
2017-12-02T04:51:13.096Z,16.23
2017-12-02T04:53:42.379Z,17.00
2017-12-02T04:56:12.033Z,17.08
2017-12-02T04:58:41.286Z,15.93
2017-12-02T05:01:10.501Z,16.67
2017-12-02T05:03:40.148Z,16.73
2017-12-02T05:06:09.543Z,16.20
2017-12-02T05:08:38.856Z,15.65
2017-12-02T05:11:08.142Z,15.40
2017-12-02T05:13:37.346Z,15.32
2017-12-02T05:16:06.495Z,17.00
2017-12-02T05:18:35.821Z,16.37
2017-12-02T05:21:04.959Z,16.33
2017-12-02T05:23:34.096Z,16.15
2017-12-02T05:26:03.260Z,16.90
2017-12-02T05:28:33.171Z,17.45
2017-12-02T05:31:02.325Z,17.05
2017-12-02T05:33:31.548Z,17.50
2017-12-02T05:36:00.749Z,17.40
2017-12-02T05:38:29.925Z,19.27
2017-12-02T05:40:59.157Z,17.20
2017-12-02T05:43:28.289Z,17.95
2017-12-02T05:45:57.488Z,17.60
2017-12-02T05:48:26.657Z,16.15
2017-12-02T05:50:55.789Z,16.35
2017-12-02T05:53:25.723Z,17.80
2017-12-02T05:55:54.889Z,16.90
2017-12-02T05:58:24.043Z,18.02
2017-12-02T06:00:53.324Z,19.45
2017-12-02T06:03:24.279Z,18.80
2017-12-02T06:05:53.514Z,18.33
2017-12-02T06:08:23.647Z,19.75
2017-12-02T06:10:53.870Z,18.30
2017-12-02T06:13:23.846Z,18.27
2017-12-02T06:15:53.068Z,16.77
2017-12-02T06:18:22.626Z,16.08
2017-12-02T06:20:51.851Z,18.17
2017-12-02T06:23:21.864Z,17.30
2017-12-02T06:25:51.214Z,16.05
2017-12-02T06:28:20.416Z,16.00
2017-12-02T06:30:49.714Z,16.02
2017-12-02T06:33:19.764Z,15.10
2017-12-02T06:35:48.943Z,16.55
2017-12-02T06:38:18.172Z,15.50
2017-12-02T06:40:48.236Z,16.33
2017-12-02T06:43:17.414Z,16.55
2017-12-02T06:45:47.341Z,17.10
2017-12-02T06:48:17.357Z,17.35
2017-12-02T06:50:47.348Z,16.67
2017-12-02T06:53:16.536Z,17.55
2017-12-02T06:55:46.131Z,19.27
2017-12-02T06:58:15.390Z,17.05
2017-12-02T07:00:44.693Z,18.48
2017-12-02T07:03:14.662Z,16.95
2017-12-02T07:05:43.988Z,16.67
2017-12-02T07:08:14.123Z,16.80
2017-12-02T07:10:44.033Z,16.98
2017-12-02T07:13:13.438Z,16.00
2017-12-02T07:15:42.693Z,15.95
2017-12-02T07:18:12.139Z,17.30
2017-12-02T07:20:41.756Z,16.30
2017-12-02T07:23:11.047Z,17.73
2017-12-02T07:25:40.607Z,17.10
2017-12-02T07:28:09.806Z,16.70
2017-12-02T07:30:38.930Z,16.73
2017-12-02T07:33:08.761Z,17.35
2017-12-02T07:35:37.929Z,17.55
2017-12-02T07:38:07.666Z,16.33
2017-12-02T07:40:37.203Z,17.45
2017-12-02T07:43:06.345Z,19.67
2017-12-02T07:45:36.239Z,16.27
2017-12-02T07:48:05.403Z,16.15
2017-12-02T07:50:34.562Z,14.98
2017-12-02T07:53:04.744Z,16.58
2017-12-02T07:55:34.719Z,15.73
2017-12-02T07:58:03.907Z,15.00
2017-12-02T08:00:33.033Z,13.90
2017-12-02T08:03:02.228Z,15.77
2017-12-02T08:05:31.366Z,15.95
2017-12-02T08:08:01.179Z,15.57
2017-12-02T08:10:31.423Z,16.02
2017-12-02T08:13:00.631Z,17.25
2017-12-02T08:15:29.858Z,16.25
2017-12-02T08:17:59.183Z,16.62
2017-12-02T08:20:28.322Z,17.02
2017-12-02T08:22:57.485Z,19.45
2017-12-02T08:25:26.620Z,19.15
2017-12-02T08:27:55.763Z,19.12
2017-12-02T08:30:25.671Z,17.30
2017-12-02T08:32:54.826Z,18.20
2017-12-02T08:35:23.970Z,20.83
2017-12-02T08:37:53.089Z,19.52
2017-12-02T08:40:23.798Z,20.17
2017-12-02T08:42:52.939Z,18.70
2017-12-02T08:45:22.138Z,17.80
2017-12-02T08:47:52.071Z,17.05
2017-12-02T08:50:22.147Z,20.05
2017-12-02T08:52:52.095Z,19.95
2017-12-02T08:55:21.369Z,18.95
2017-12-02T08:57:50.962Z,19.98
2017-12-02T09:00:20.139Z,19.23
2017-12-02T09:02:49.537Z,18.42
2017-12-02T09:05:19.549Z,20.67
2017-12-02T09:07:48.749Z,20.23
2017-12-02T09:10:19.032Z,16.70
2017-12-02T09:12:48.274Z,19.25
2017-12-02T09:15:17.548Z,21.23
2017-12-02T09:17:47.568Z,22.15
2017-12-02T09:20:16.691Z,22.30
2017-12-02T09:22:46.706Z,23.48
2017-12-02T09:25:16.007Z,20.35
2017-12-02T09:27:46.076Z,18.65
2017-12-02T09:30:15.313Z,19.58
2017-12-02T09:32:44.595Z,18.90
2017-12-02T09:35:13.774Z,18.45
2017-12-02T09:37:43.734Z,19.02
2017-12-02T09:40:13.032Z,17.35
2017-12-02T09:42:42.360Z,16.85
2017-12-02T09:45:12.551Z,17.00
2017-12-02T09:47:41.971Z,15.95
2017-12-02T09:50:11.340Z,15.90
2017-12-02T09:52:40.585Z,16.77
2017-12-02T09:55:10.763Z,16.20
2017-12-02T09:57:39.994Z,13.80
2017-12-02T10:00:09.391Z,14.70
2017-12-02T10:02:38.638Z,13.98
2017-12-02T10:05:07.783Z,13.45
2017-12-02T10:07:36.876Z,13.88
2017-12-02T10:10:06.597Z,15.90
2017-12-02T10:12:35.735Z,15.57
2017-12-02T10:15:04.855Z,17.45
2017-12-02T10:17:35.262Z,17.98
2017-12-02T10:20:04.405Z,18.58
2017-12-02T10:22:33.550Z,16.70
2017-12-02T10:25:02.793Z,16.55
2017-12-02T10:27:31.947Z,17.48
2017-12-02T10:30:01.060Z,21.23
2017-12-02T10:32:30.218Z,17.30
2017-12-02T10:35:00.906Z,18.00
2017-12-02T10:37:30.058Z,17.50
2017-12-02T10:39:59.463Z,18.45
2017-12-02T10:42:28.788Z,19.75
2017-12-02T10:44:58.004Z,18.73
2017-12-02T10:47:28.876Z,18.00
2017-12-02T10:49:58.017Z,17.95
2017-12-02T10:52:27.160Z,19.33
2017-12-02T10:54:57.738Z,15.30
2017-12-02T10:57:27.655Z,16.30
2017-12-02T10:59:56.751Z,13.20
2017-12-02T11:02:26.366Z,15.50
2017-12-02T11:04:56.705Z,18.60
2017-12-02T11:07:26.079Z,18.60
2017-12-02T11:10:05.204Z,19.87
2017-12-02T11:12:34.372Z,19.10
2017-12-02T11:15:03.947Z,17.85
2017-12-02T11:17:33.064Z,17.17
2017-12-02T11:20:03.387Z,17.75
2017-12-02T11:22:32.686Z,15.63
2017-12-02T11:25:02.482Z,16.70
2017-12-02T11:27:31.655Z,13.40
2017-12-02T11:30:01.567Z,15.20
2017-12-02T11:32:30.793Z,14.10
2017-12-02T11:35:00.734Z,13.45
2017-12-02T11:37:30.679Z,13.62
2017-12-02T11:39:59.887Z,14.75
2017-12-02T11:42:29.073Z,14.40
2017-12-02T11:44:58.307Z,14.10
2017-12-02T11:47:28.302Z,14.63
2017-12-02T11:49:57.759Z,14.70
2017-12-02T11:52:27.167Z,15.23
2017-12-02T11:54:57.032Z,15.52
2017-12-02T11:57:26.178Z,13.85
2017-12-02T11:59:55.316Z,14.75
2017-12-02T12:02:25.256Z,13.82
2017-12-02T12:04:55.863Z,13.68
2017-12-02T12:07:25.147Z,10.95
2017-12-02T12:09:54.464Z,14.98
2017-12-02T12:12:23.658Z,10.50
2017-12-02T12:14:52.968Z,11.48
2017-12-02T12:17:22.741Z,11.00
2017-12-02T12:19:51.950Z,12.43
2017-12-02T12:22:21.110Z,11.30
2017-12-02T12:24:50.544Z,12.55
2017-12-02T12:27:20.428Z,12.37
2017-12-02T12:29:50.798Z,14.35
2017-12-02T12:32:19.974Z,13.20
2017-12-02T12:34:49.119Z,14.13
2017-12-02T12:37:19.080Z,14.45
2017-12-02T12:39:48.263Z,16.55
2017-12-02T12:42:18.384Z,14.68
2017-12-02T12:44:48.032Z,13.75
2017-12-02T12:47:17.224Z,16.12
2017-12-02T12:49:46.453Z,14.05
2017-12-02T12:52:15.667Z,13.80
2017-12-02T12:54:46.849Z,11.68
2017-12-02T12:57:16.148Z,12.23
2017-12-02T12:59:45.442Z,12.82
2017-12-02T13:02:17.298Z,12.10
2017-12-02T13:04:47.730Z,13.60
2017-12-02T13:07:16.859Z,13.93
2017-12-02T13:09:45.991Z,15.95
2017-12-02T13:12:20.252Z,13.85
2017-12-02T13:14:49.449Z,15.18
2017-12-02T13:17:22.122Z,14.70
2017-12-02T13:19:53.024Z,16.67
2017-12-02T13:22:23.091Z,16.58
2017-12-02T13:24:52.569Z,14.05
2017-12-02T13:27:21.705Z,14.35
2017-12-02T13:29:51.940Z,14.50
2017-12-02T13:32:21.066Z,13.90
2017-12-02T13:34:51.078Z,14.07
2017-12-02T13:37:20.635Z,12.85
2017-12-02T13:39:53.668Z,13.73
2017-12-02T13:42:23.605Z,14.93
2017-12-02T13:44:54.358Z,14.57
2017-12-02T13:47:23.495Z,13.75
2017-12-02T13:49:52.919Z,14.75
2017-12-02T13:52:22.196Z,15.85
2017-12-02T13:54:52.689Z,14.57
2017-12-02T13:57:22.908Z,12.18
2017-12-02T13:59:52.826Z,15.68
2017-12-02T14:02:22.365Z,13.88
2017-12-02T14:04:52.058Z,13.18
2017-12-02T14:07:21.337Z,12.77
2017-12-02T14:09:50.941Z,11.98
2017-12-02T14:12:20.643Z,11.45
2017-12-02T14:14:50.112Z,10.68
2017-12-02T14:17:19.815Z,12.73
2017-12-02T14:19:49.094Z,14.13
2017-12-02T14:22:19.113Z,11.20
2017-12-02T14:24:48.279Z,10.85
2017-12-02T14:27:17.906Z,12.43
2017-12-02T14:29:47.890Z,11.70
2017-12-02T14:32:17.055Z,11.63
2017-12-02T14:34:47.023Z,11.30
2017-12-02T14:37:17.885Z,12.15
2017-12-02T14:39:48.116Z,15.63
2017-12-02T14:42:17.651Z,13.90
2017-12-02T14:44:46.910Z,13.23
2017-12-02T14:47:18.871Z,13.50
2017-12-02T14:49:48.020Z,13.23
2017-12-02T14:52:17.275Z,12.48
2017-12-02T14:54:46.627Z,12.13
2017-12-02T14:57:16.744Z,9.98
2017-12-02T14:59:46.339Z,13.95
2017-12-02T15:02:15.604Z,12.43
2017-12-02T15:04:44.800Z,11.20
2017-12-02T15:07:14.034Z,12.75
2017-12-02T15:09:44.170Z,12.05
2017-12-02T15:12:13.408Z,14.38
2017-12-02T15:14:42.768Z,13.13
2017-12-02T15:17:13.113Z,14.60
2017-12-02T15:19:43.397Z,14.00
2017-12-02T15:22:12.734Z,13.62
2017-12-02T15:24:42.097Z,14.60
2017-12-02T15:27:11.327Z,15.55
2017-12-02T15:29:40.963Z,14.25
2017-12-02T15:32:10.861Z,15.85
2017-12-02T15:34:40.861Z,15.20
2017-12-02T15:37:10.152Z,16.00
2017-12-02T15:39:40.703Z,17.23
2017-12-02T15:42:10.292Z,16.25
2017-12-02T15:44:39.575Z,19.15
2017-12-02T15:47:09.659Z,16.62
2017-12-02T15:49:38.800Z,16.33
2017-12-02T15:52:08.070Z,18.05
2017-12-02T15:54:38.935Z,17.00
2017-12-02T15:57:12.050Z,19.02
2017-12-02T15:59:44.026Z,18.08
2017-12-02T16:02:16.629Z,17.87
2017-12-02T16:04:49.726Z,19.30
2017-12-02T16:07:21.186Z,20.00
2017-12-02T16:09:50.723Z,19.60
2017-12-02T16:12:20.342Z,19.60
2017-12-02T16:14:49.657Z,19.27
2017-12-02T16:17:19.037Z,18.10
2017-12-02T16:19:48.496Z,19.75
2017-12-02T16:22:17.760Z,21.42
2017-12-02T16:24:47.224Z,19.37
2017-12-02T16:27:16.568Z,19.90
2017-12-02T16:29:45.923Z,20.67
2017-12-02T16:32:20.136Z,22.30
2017-12-02T16:34:49.650Z,18.90
2017-12-02T16:37:20.086Z,21.40
2017-12-02T16:39:49.783Z,23.08
2017-12-02T16:42:20.923Z,21.30
2017-12-02T16:44:51.159Z,21.95
2017-12-02T16:47:20.807Z,22.70
2017-12-02T16:49:50.182Z,24.98
2017-12-02T16:52:21.875Z,25.20
2017-12-02T16:54:51.208Z,25.08
2017-12-02T16:57:21.035Z,21.83
2017-12-02T16:59:50.260Z,22.90
2017-12-02T17:02:19.830Z,23.83
2017-12-02T17:04:49.775Z,24.33
2017-12-02T17:07:19.145Z,21.98
2017-12-02T17:09:49.412Z,24.70
2017-12-02T17:12:20.177Z,24.30
2017-12-02T17:14:50.764Z,27.50
2017-12-02T17:17:20.506Z,25.42
2017-12-02T17:19:56.835Z,24.25
2017-12-02T17:22:26.911Z,25.08
2017-12-02T17:24:57.452Z,24.80
2017-12-02T17:27:27.369Z,21.00
2017-12-02T17:29:56.637Z,22.62
2017-12-02T17:32:29.209Z,24.73
2017-12-02T17:34:58.611Z,22.80
2017-12-02T17:37:27.739Z,26.12
2017-12-02T17:39:57.512Z,30.02
2017-12-02T17:42:26.783Z,23.25
2017-12-02T17:44:56.386Z,25.60
2017-12-02T17:47:26.055Z,25.65
2017-12-02T17:49:56.714Z,25.40
2017-12-02T17:52:26.791Z,25.23
2017-12-02T17:55:04.901Z,26.45
2017-12-02T17:57:34.457Z,27.02
2017-12-02T18:00:06.514Z,26.08
2017-12-02T18:02:35.886Z,26.27
2017-12-02T18:05:05.914Z,26.92
2017-12-02T18:07:35.349Z,25.60
2017-12-02T18:10:08.788Z,27.85
2017-12-02T18:12:38.721Z,25.17
2017-12-02T18:15:08.393Z,25.17
2017-12-02T18:17:38.177Z,25.45
2017-12-02T18:20:07.976Z,27.23
2017-12-02T18:22:37.195Z,26.25
2017-12-02T18:25:06.495Z,27.50
2017-12-02T18:27:35.716Z,27.90
2017-12-02T18:30:04.836Z,27.60
2017-12-02T18:32:34.007Z,27.05
2017-12-02T18:35:03.123Z,28.38
2017-12-02T18:37:32.400Z,24.70
2017-12-02T18:40:01.572Z,27.35
2017-12-02T18:42:32.016Z,24.85
2017-12-02T18:45:01.181Z,26.55
2017-12-02T18:47:30.506Z,29.20
2017-12-02T18:49:59.648Z,24.08
2017-12-02T18:52:29.143Z,26.10
2017-12-02T18:54:58.701Z,23.85
2017-12-02T18:57:28.475Z,27.10
2017-12-02T18:59:57.599Z,26.02
2017-12-02T19:02:26.911Z,24.80
2017-12-02T19:04:58.371Z,25.15
2017-12-02T19:07:27.511Z,27.45
2017-12-02T19:09:56.590Z,27.10
2017-12-02T19:12:25.754Z,24.73
2017-12-02T19:14:55.651Z,26.60
2017-12-02T19:17:24.769Z,25.17
2017-12-02T19:19:53.958Z,25.58
2017-12-02T19:22:23.195Z,25.45
2017-12-02T19:24:52.365Z,24.50
2017-12-02T19:27:22.615Z,24.50
2017-12-02T19:29:52.184Z,25.05
2017-12-02T19:32:21.344Z,24.30
2017-12-02T19:34:51.643Z,26.52
2017-12-02T19:37:21.222Z,23.27
2017-12-02T19:39:50.436Z,25.70
2017-12-02T19:42:21.684Z,24.60
2017-12-02T19:44:52.014Z,22.70
2017-12-02T19:47:21.205Z,23.75
2017-12-02T19:49:50.350Z,22.83
2017-12-02T19:52:19.642Z,23.67
2017-12-02T19:54:48.905Z,26.37
2017-12-02T19:57:18.199Z,26.48
2017-12-02T19:59:48.300Z,26.05
2017-12-02T20:02:17.493Z,27.10
2017-12-02T20:04:46.698Z,25.08
2017-12-02T20:07:16.000Z,24.67
2017-12-02T20:09:45.253Z,24.55
2017-12-02T20:12:14.591Z,26.25
2017-12-02T20:14:45.412Z,28.67
2017-12-02T20:17:15.442Z,26.83
2017-12-02T20:19:47.074Z,25.73
2017-12-02T20:22:16.760Z,24.30
2017-12-02T20:24:47.149Z,27.55
2017-12-02T20:27:18.824Z,24.10
2017-12-02T20:29:48.532Z,26.12
2017-12-02T20:32:18.459Z,25.42
2017-12-02T20:34:48.876Z,24.37
2017-12-02T20:37:18.648Z,25.52
2017-12-02T20:39:49.242Z,24.17
2017-12-02T20:42:19.066Z,25.37
2017-12-02T20:44:49.398Z,24.17
2017-12-02T20:47:19.153Z,22.25
2017-12-02T20:49:49.083Z,25.08
2017-12-02T20:52:19.665Z,25.45
2017-12-02T20:54:50.256Z,24.58
2017-12-02T20:57:20.001Z,22.90
2017-12-02T20:59:50.893Z,21.92
2017-12-02T21:02:21.371Z,23.73
2017-12-02T21:04:52.037Z,23.45
2017-12-02T21:07:22.943Z,21.17
2017-12-02T21:09:53.714Z,22.27
2017-12-02T21:12:23.588Z,21.60
2017-12-02T21:14:53.186Z,22.83
2017-12-02T21:17:23.214Z,20.10
2017-12-02T21:19:55.006Z,20.42
2017-12-02T21:22:26.104Z,20.83
2017-12-02T21:24:55.848Z,22.08
2017-12-02T21:27:25.525Z,21.80
2017-12-02T21:29:55.221Z,21.50
2017-12-02T21:32:25.984Z,21.02
2017-12-02T21:34:55.377Z,23.42
2017-12-02T21:37:24.887Z,23.05
2017-12-02T21:39:54.629Z,24.37
2017-12-02T21:42:24.344Z,23.87
2017-12-02T21:44:55.061Z,24.12
2017-12-02T21:47:24.901Z,22.10
2017-12-02T21:49:54.561Z,23.48
2017-12-02T21:52:24.175Z,22.55
2017-12-02T21:54:54.472Z,23.25
2017-12-02T21:57:24.142Z,22.50
2017-12-02T21:59:54.177Z,21.58
2017-12-02T22:02:24.836Z,23.33
2017-12-02T22:04:54.545Z,25.92
2017-12-02T22:07:25.108Z,27.95
2017-12-02T22:09:55.014Z,27.10
2017-12-02T22:12:25.411Z,25.50
2017-12-02T22:14:56.049Z,24.08
2017-12-02T22:17:25.784Z,23.23
2017-12-02T22:19:57.941Z,23.02
2017-12-02T22:22:29.051Z,24.60
2017-12-02T22:24:59.489Z,24.45
2017-12-02T22:27:29.881Z,23.02
2017-12-02T22:29:59.653Z,23.35
2017-12-02T22:32:29.765Z,23.15
2017-12-02T22:35:01.091Z,22.30
2017-12-02T22:37:31.196Z,24.60
2017-12-02T22:40:00.789Z,22.95
2017-12-02T22:42:30.385Z,24.30
2017-12-02T22:45:00.033Z,21.92
2017-12-02T22:47:29.609Z,25.05
2017-12-02T22:50:00.586Z,23.52
2017-12-02T22:52:31.332Z,22.98
2017-12-02T22:55:01.608Z,23.62
2017-12-02T22:57:31.159Z,23.87
2017-12-02T23:00:02.307Z,24.70
2017-12-02T23:02:31.922Z,24.20
2017-12-02T23:05:01.706Z,23.45
2017-12-02T23:07:32.648Z,22.40
2017-12-02T23:10:02.355Z,24.35
2017-12-02T23:12:31.848Z,22.10
2017-12-02T23:15:01.553Z,22.50
2017-12-02T23:17:31.079Z,26.33
2017-12-02T23:20:00.891Z,23.05
2017-12-02T23:22:33.275Z,24.08
2017-12-02T23:25:03.124Z,21.48
2017-12-02T23:27:32.894Z,22.95
2017-12-02T23:30:02.549Z,27.23
2017-12-02T23:32:32.156Z,22.75
2017-12-02T23:35:01.843Z,23.20
2017-12-02T23:37:32.028Z,21.75
2017-12-02T23:40:01.491Z,21.67
2017-12-02T23:42:31.182Z,25.65
2017-12-02T23:45:03.607Z,23.60
2017-12-02T23:47:33.227Z,23.20
2017-12-02T23:50:04.483Z,22.35
2017-12-02T23:52:35.667Z,23.80
2017-12-02T23:55:06.735Z,21.77
2017-12-02T23:57:36.397Z,23.20
